createdAt,value
2022-12-29T00:02:24.753Z,78.66
2022-12-29T00:04:57.560Z,78.86
2022-12-29T00:07:29.996Z,78.55
2022-12-29T00:10:02.454Z,78.50
2022-12-29T00:12:48.729Z,78.64
2022-12-29T00:15:39.668Z,78.33
2022-12-29T00:18:12.375Z,78.35
2022-12-29T00:21:02.465Z,78.30
2022-12-29T00:23:52.519Z,78.25
2022-12-29T00:26:42.499Z,78.36
2022-12-29T00:29:33.243Z,78.55
2022-12-29T00:32:26.381Z,78.25
2022-12-29T00:35:10.501Z,78.32
2022-12-29T00:38:05.653Z,78.40
2022-12-29T00:40:55.458Z,78.19
2022-12-29T00:43:45.464Z,78.04
2022-12-29T00:46:20.255Z,78.08
2022-12-29T00:49:10.434Z,78.20
2022-12-29T00:51:43.012Z,78.05
2022-12-29T00:54:18.512Z,78.03
2022-12-29T00:56:52.357Z,78.00
2022-12-29T00:59:25.782Z,77.91
2022-12-29T01:01:58.723Z,78.07
2022-12-29T01:04:31.327Z,77.84
2022-12-29T01:07:03.751Z,77.72
2022-12-29T01:09:53.907Z,78.14
2022-12-29T01:12:40.024Z,78.07
2022-12-29T01:15:15.310Z,78.05
2022-12-29T01:17:48.088Z,78.06
2022-12-29T01:20:20.945Z,78.10
2022-12-29T01:22:53.345Z,78.07
2022-12-29T01:25:25.986Z,77.90
2022-12-29T01:27:58.419Z,77.73
2022-12-29T01:30:31.977Z,77.93
2022-12-29T01:33:05.042Z,77.40
2022-12-29T01:35:38.013Z,77.49
2022-12-29T01:38:10.537Z,77.25
2022-12-29T01:40:48.826Z,77.32
2022-12-29T01:43:21.877Z,77.22
2022-12-29T01:45:56.421Z,77.36
2022-12-29T01:48:28.844Z,77.19
2022-12-29T01:51:01.317Z,76.89
2022-12-29T01:53:38.041Z,77.35
2022-12-29T01:56:14.713Z,77.03
2022-12-29T01:58:51.432Z,77.29
2022-12-29T02:01:26.459Z,77.21
2022-12-29T02:03:59.295Z,77.26
2022-12-29T02:06:35.601Z,77.25
2022-12-29T02:09:08.121Z,76.85
2022-12-29T02:11:41.765Z,76.72
2022-12-29T02:14:16.058Z,77.12
2022-12-29T02:17:03.291Z,76.85
2022-12-29T02:20:05.489Z,76.42
2022-12-29T02:22:44.735Z,76.62
2022-12-29T02:25:40.666Z,76.80
2022-12-29T02:31:19.593Z,76.29
2022-12-29T02:34:09.305Z,76.61
2022-12-29T02:36:51.533Z,76.50
2022-12-29T02:39:31.532Z,75.94
2022-12-29T02:42:13.910Z,76.18
2022-12-29T02:44:57.760Z,76.03
2022-12-29T02:47:38.609Z,75.73
2022-12-29T02:50:19.872Z,75.83
2022-12-29T02:52:57.301Z,75.33
2022-12-29T02:55:30.118Z,75.83
2022-12-29T02:58:19.004Z,75.37
2022-12-29T03:01:11.363Z,75.88
2022-12-29T03:03:58.115Z,75.65
2022-12-29T03:06:40.814Z,75.82
2022-12-29T03:09:28.047Z,75.94
2022-12-29T03:12:11.539Z,75.77
2022-12-29T03:15:15.924Z,75.68
2022-12-29T03:18:00.391Z,75.26
2022-12-29T03:20:39.935Z,75.51
2022-12-29T03:23:13.273Z,75.60
2022-12-29T03:25:50.511Z,75.68
2022-12-29T03:28:29.696Z,75.57
2022-12-29T03:31:08.894Z,75.56
2022-12-29T03:33:43.889Z,75.58
2022-12-29T03:36:24.339Z,75.34
2022-12-29T03:39:02.386Z,75.22
2022-12-29T03:41:38.873Z,75.54
2022-12-29T03:44:12.004Z,75.22
2022-12-29T03:46:45.406Z,75.14
2022-12-29T03:49:18.353Z,75.44
2022-12-29T03:51:52.009Z,75.34
2022-12-29T03:54:26.756Z,75.05
2022-12-29T03:56:59.414Z,75.19
2022-12-29T03:59:55.150Z,75.28
2022-12-29T04:02:29.522Z,75.27
2022-12-29T04:05:02.408Z,74.87
2022-12-29T04:07:35.073Z,74.91
2022-12-29T04:10:10.574Z,75.05
2022-12-29T04:12:44.020Z,75.00
2022-12-29T04:15:17.896Z,75.34
2022-12-29T04:17:51.142Z,74.92
2022-12-29T04:20:41.672Z,75.06
2022-12-29T04:23:12.724Z,75.15
2022-12-29T04:25:49.550Z,75.19
2022-12-29T04:28:22.631Z,75.19
2022-12-29T04:31:16.063Z,75.58
2022-12-29T04:33:51.267Z,75.24
2022-12-29T04:36:29.897Z,75.28
2022-12-29T04:39:03.514Z,75.41
2022-12-29T04:41:36.191Z,75.51
2022-12-29T04:44:09.447Z,75.42
2022-12-29T04:47:04.986Z,75.52
2022-12-29T04:50:00.511Z,75.80
2022-12-29T04:52:49.156Z,75.66
2022-12-29T04:55:23.513Z,75.67
2022-12-29T04:57:56.356Z,75.90
2022-12-29T05:00:29.448Z,75.81
2022-12-29T05:03:03.012Z,75.94
2022-12-29T05:05:37.158Z,75.98
2022-12-29T05:08:10.682Z,75.97
2022-12-29T05:10:47.405Z,76.28
2022-12-29T05:13:21.273Z,75.99
2022-12-29T05:15:55.679Z,76.05
2022-12-29T05:18:29.652Z,76.38
2022-12-29T05:21:02.938Z,76.45
2022-12-29T05:23:35.626Z,76.63
2022-12-29T05:26:14.945Z,76.71
2022-12-29T05:29:10.403Z,76.57
2022-12-29T05:31:43.731Z,76.72
2022-12-29T05:34:16.468Z,76.83
2022-12-29T05:36:49.031Z,76.92
2022-12-29T05:39:22.009Z,77.00
2022-12-29T05:42:00.813Z,77.23
2022-12-29T05:45:02.930Z,77.31
2022-12-29T05:47:51.714Z,77.24
2022-12-29T05:50:33.183Z,77.22
2022-12-29T05:53:17.933Z,77.42
2022-12-29T05:55:51.996Z,77.36
2022-12-29T05:58:27.725Z,77.39
2022-12-29T06:01:00.396Z,77.39
2022-12-29T06:03:33.331Z,77.31
2022-12-29T06:06:06.350Z,77.46
2022-12-29T06:08:38.931Z,77.43
2022-12-29T06:11:12.120Z,77.27
2022-12-29T06:13:47.859Z,77.47
2022-12-29T06:16:23.564Z,77.53
2022-12-29T06:19:00.621Z,77.50
2022-12-29T06:21:36.307Z,77.24
2022-12-29T06:24:12.174Z,77.32
2022-12-29T06:26:47.995Z,77.46
2022-12-29T06:29:21.795Z,77.26
2022-12-29T06:31:59.410Z,77.32
2022-12-29T06:34:36.711Z,77.28
2022-12-29T06:37:09.282Z,77.19
2022-12-29T06:39:41.933Z,77.08
2022-12-29T06:42:17.136Z,77.12
2022-12-29T06:44:58.731Z,77.14
2022-12-29T06:47:34.993Z,76.69
2022-12-29T06:50:08.349Z,76.49
2022-12-29T06:52:43.620Z,76.54
2022-12-29T06:55:16.037Z,76.98
2022-12-29T06:57:48.416Z,76.78
2022-12-29T07:00:23.135Z,76.89
2022-12-29T07:02:57.002Z,76.81
2022-12-29T07:05:32.658Z,76.72
2022-12-29T07:08:05.283Z,76.85
2022-12-29T07:10:37.771Z,76.55
2022-12-29T07:13:10.674Z,76.51
2022-12-29T07:15:43.613Z,76.79
2022-12-29T07:18:19.623Z,76.50
2022-12-29T07:20:57.064Z,76.57
2022-12-29T07:23:33.319Z,76.50
2022-12-29T07:26:07.768Z,76.28
2022-12-29T07:28:40.492Z,76.46
2022-12-29T07:31:19.294Z,76.25
2022-12-29T07:33:52.633Z,76.33
2022-12-29T07:36:29.299Z,76.23
2022-12-29T07:39:03.499Z,75.95
2022-12-29T07:41:36.962Z,75.62
2022-12-29T07:44:11.447Z,75.71
2022-12-29T07:47:04.703Z,75.53
2022-12-29T07:49:37.149Z,75.25
2022-12-29T07:52:09.752Z,74.85
2022-12-29T07:54:42.264Z,75.13
2022-12-29T07:57:14.824Z,74.92
2022-12-29T07:59:47.341Z,74.98
2022-12-29T08:02:19.991Z,74.57
2022-12-29T08:04:52.482Z,74.29
2022-12-29T08:07:25.004Z,74.37
2022-12-29T08:09:57.528Z,73.28
2022-12-29T08:12:30.124Z,73.58
2022-12-29T08:15:02.551Z,73.69
2022-12-29T08:17:35.130Z,73.89
2022-12-29T08:20:09.444Z,73.84
2022-12-29T08:22:42.439Z,72.41
2022-12-29T08:25:15.081Z,72.48
2022-12-29T08:27:47.595Z,70.64
2022-12-29T08:30:20.381Z,69.54
2022-12-29T08:32:53.538Z,69.56
2022-12-29T08:35:26.238Z,67.95
2022-12-29T08:37:59.020Z,65.81
2022-12-29T08:40:35.609Z,65.32
2022-12-29T08:43:43.812Z,65.89
2022-12-29T08:46:38.370Z,62.91
2022-12-29T08:49:11.093Z,63.68
2022-12-29T08:51:46.344Z,62.98
2022-12-29T08:54:18.804Z,63.69
2022-12-29T08:56:51.318Z,62.68
2022-12-29T08:59:25.440Z,61.79
2022-12-29T09:01:58.989Z,62.97
2022-12-29T09:04:32.213Z,61.73
2022-12-29T09:07:04.892Z,63.08
2022-12-29T09:09:40.712Z,61.94
2022-12-29T09:12:13.202Z,62.12
2022-12-29T09:14:47.286Z,62.96
2022-12-29T09:17:37.781Z,64.18
2022-12-29T09:20:11.697Z,62.13
2022-12-29T09:22:44.778Z,62.12
2022-12-29T09:25:21.360Z,61.48
2022-12-29T09:27:54.510Z,61.10
2022-12-29T09:30:27.488Z,61.73
2022-12-29T09:33:00.265Z,61.58
2022-12-29T09:35:32.902Z,62.52
2022-12-29T09:38:05.281Z,62.39
2022-12-29T09:40:38.367Z,62.19
2022-12-29T09:43:24.702Z,63.03
2022-12-29T09:46:05.864Z,63.31
2022-12-29T09:48:44.891Z,62.53
2022-12-29T09:51:26.595Z,62.87
2022-12-29T09:54:03.938Z,63.10
2022-12-29T09:56:36.429Z,63.10
2022-12-29T09:59:17.452Z,63.37
2022-12-29T10:01:58.474Z,62.64
2022-12-29T10:04:31.471Z,62.37
2022-12-29T10:07:29.029Z,62.37
2022-12-29T10:10:14.040Z,61.40
2022-12-29T10:12:59.076Z,61.14
2022-12-29T10:15:47.046Z,61.37
2022-12-29T10:18:37.532Z,60.36
2022-12-29T10:21:22.063Z,57.64
2022-12-29T10:23:58.495Z,58.30
2022-12-29T10:26:33.902Z,57.85
2022-12-29T10:29:08.790Z,56.83
2022-12-29T10:31:45.331Z,55.40
2022-12-29T10:34:25.409Z,56.96
2022-12-29T10:37:03.035Z,54.33
2022-12-29T10:39:40.681Z,56.73
2022-12-29T10:42:23.289Z,54.16
2022-12-29T10:44:56.405Z,55.19
2022-12-29T10:47:33.647Z,55.25
2022-12-29T10:50:08.614Z,51.88
2022-12-29T10:52:42.636Z,52.23
2022-12-29T10:55:19.703Z,49.69
2022-12-29T10:57:52.366Z,50.40
2022-12-29T11:00:25.934Z,50.22
2022-12-29T11:03:18.110Z,48.83
2022-12-29T11:05:56.461Z,48.98
2022-12-29T11:08:33.377Z,49.58
2022-12-29T11:11:08.993Z,50.52
2022-12-29T11:13:57.520Z,48.71
2022-12-29T11:16:37.242Z,47.69
2022-12-29T11:19:21.463Z,47.76
2022-12-29T11:21:54.611Z,49.23
2022-12-29T11:24:29.061Z,50.08
2022-12-29T11:27:16.837Z,50.47
2022-12-29T11:29:51.344Z,51.33
2022-12-29T11:32:28.917Z,52.21
2022-12-29T11:35:02.833Z,53.16
2022-12-29T11:37:41.498Z,53.83
2022-12-29T11:40:21.711Z,54.18
2022-12-29T11:42:59.634Z,54.71
2022-12-29T11:45:36.204Z,55.29
2022-12-29T11:48:20.731Z,55.33
2022-12-29T11:50:57.004Z,55.88
2022-12-29T11:53:35.894Z,56.27
2022-12-29T11:56:15.271Z,57.21
2022-12-29T11:58:50.573Z,57.27
2022-12-29T12:01:31.524Z,58.42
2022-12-29T12:04:08.780Z,58.50
2022-12-29T12:06:47.357Z,59.83
2022-12-29T12:09:30.916Z,59.96
2022-12-29T12:12:04.227Z,61.13
2022-12-29T12:14:44.631Z,61.90
2022-12-29T12:17:36.855Z,61.20
2022-12-29T12:20:23.141Z,61.71
2022-12-29T12:23:04.657Z,62.96
2022-12-29T12:25:44.341Z,64.00
2022-12-29T12:28:23.912Z,64.97
2022-12-29T12:30:59.389Z,64.99
2022-12-29T12:33:37.516Z,65.91
2022-12-29T12:36:28.165Z,65.16
2022-12-29T12:39:02.134Z,66.42
2022-12-29T12:41:47.218Z,66.55
2022-12-29T12:44:29.870Z,67.33
2022-12-29T12:47:27.404Z,68.08
2022-12-29T12:50:25.106Z,67.46
2022-12-29T12:53:13.702Z,67.50
2022-12-29T12:55:59.735Z,67.68
2022-12-29T12:58:43.295Z,67.52
2022-12-29T13:01:35.362Z,68.31
2022-12-29T13:04:28.797Z,68.74
2022-12-29T13:07:16.636Z,69.37
2022-12-29T13:10:04.620Z,69.70
2022-12-29T13:12:43.608Z,68.67
2022-12-29T13:15:26.054Z,68.55
2022-12-29T13:18:09.466Z,69.08
2022-12-29T13:20:55.945Z,69.48
2022-12-29T13:23:34.530Z,69.39
2022-12-29T13:26:15.495Z,69.22
2022-12-29T13:28:58.168Z,69.00
2022-12-29T13:31:42.169Z,68.94
2022-12-29T13:34:31.477Z,69.04
2022-12-29T13:37:12.097Z,69.22
2022-12-29T13:39:49.072Z,69.13
2022-12-29T13:42:23.808Z,69.83
2022-12-29T13:45:00.883Z,69.72
2022-12-29T13:47:39.237Z,69.67
2022-12-29T13:50:25.856Z,69.64
2022-12-29T13:53:06.396Z,69.79
2022-12-29T13:55:40.289Z,69.48
2022-12-29T13:58:26.644Z,69.87
2022-12-29T14:01:06.191Z,70.02
2022-12-29T14:03:51.601Z,69.66
2022-12-29T14:06:28.295Z,70.27
2022-12-29T14:09:07.933Z,69.98
2022-12-29T14:11:43.051Z,70.09
2022-12-29T14:14:23.488Z,70.28
2022-12-29T14:16:56.934Z,70.28
2022-12-29T14:19:33.432Z,70.60
2022-12-29T14:22:07.301Z,70.49
2022-12-29T14:24:51.603Z,71.00
2022-12-29T14:27:57.793Z,70.78
2022-12-29T14:31:02.239Z,70.51
2022-12-29T14:33:39.932Z,71.11
2022-12-29T14:36:30.434Z,71.23
2022-12-29T14:39:07.699Z,71.43
2022-12-29T14:41:43.934Z,71.83
2022-12-29T14:44:22.419Z,71.54
2022-12-29T14:47:01.394Z,71.28
2022-12-29T14:49:41.561Z,71.92
2022-12-29T14:52:23.993Z,72.26
2022-12-29T14:55:00.198Z,72.50
2022-12-29T14:57:36.885Z,72.05
2022-12-29T15:00:21.168Z,72.34
2022-12-29T15:03:04.972Z,72.53
2022-12-29T15:05:48.410Z,72.42
2022-12-29T15:08:25.919Z,72.44
2022-12-29T15:11:03.011Z,72.95
2022-12-29T15:13:39.835Z,72.98
2022-12-29T15:16:26.232Z,73.24
2022-12-29T15:18:59.536Z,73.34
2022-12-29T15:21:34.993Z,73.08
2022-12-29T15:24:12.758Z,72.92
2022-12-29T15:26:48.912Z,73.14
2022-12-29T15:29:35.940Z,73.36
2022-12-29T15:32:30.425Z,73.45
2022-12-29T15:35:23.064Z,73.38
2022-12-29T15:37:56.401Z,73.42
2022-12-29T15:40:31.721Z,73.36
2022-12-29T15:43:26.920Z,73.26
2022-12-29T15:45:59.705Z,73.56
2022-12-29T15:48:35.654Z,73.34
2022-12-29T15:51:19.501Z,72.87
2022-12-29T15:53:53.475Z,72.87
2022-12-29T15:56:26.400Z,72.89
2022-12-29T15:58:59.894Z,72.77
2022-12-29T16:01:35.751Z,72.74
2022-12-29T16:04:10.624Z,72.73
2022-12-29T16:06:56.604Z,72.34
2022-12-29T16:09:37.376Z,72.14
2022-12-29T16:12:18.572Z,72.07
2022-12-29T16:14:55.177Z,72.08
2022-12-29T16:17:30.147Z,72.19
2022-12-29T16:20:18.547Z,72.02
2022-12-29T16:22:57.760Z,71.79
2022-12-29T16:25:35.599Z,71.69
2022-12-29T16:28:21.465Z,71.60
2022-12-29T16:31:04.130Z,71.67
2022-12-29T16:33:53.503Z,71.56
2022-12-29T16:36:41.947Z,71.71
2022-12-29T16:39:32.798Z,71.59
2022-12-29T16:42:25.646Z,71.64
2022-12-29T16:45:22.643Z,71.25
2022-12-29T16:48:22.183Z,71.23
2022-12-29T16:51:02.936Z,71.46
2022-12-29T16:53:38.144Z,71.48
2022-12-29T16:56:16.953Z,71.31
2022-12-29T16:58:54.678Z,71.42
2022-12-29T17:01:27.537Z,71.29
2022-12-29T17:04:07.578Z,71.31
2022-12-29T17:06:40.228Z,71.63
2022-12-29T17:09:23.072Z,71.60
2022-12-29T17:12:02.999Z,71.73
2022-12-29T17:14:45.539Z,71.53
2022-12-29T17:17:21.675Z,71.25
2022-12-29T17:20:05.816Z,71.36
2022-12-29T17:22:38.417Z,71.49
2022-12-29T17:25:17.875Z,71.49
2022-12-29T17:27:56.392Z,71.37
2022-12-29T17:30:34.167Z,71.41
2022-12-29T17:33:09.758Z,71.23
2022-12-29T17:35:42.639Z,71.34
2022-12-29T17:38:21.273Z,71.54
2022-12-29T17:40:53.989Z,71.72
2022-12-29T17:43:31.459Z,71.56
2022-12-29T17:46:09.159Z,71.56
2022-12-29T17:48:41.961Z,71.60
2022-12-29T17:51:15.047Z,71.63
2022-12-29T17:53:47.949Z,71.72
2022-12-29T17:56:20.851Z,71.82
2022-12-29T17:58:56.179Z,71.99
2022-12-29T18:01:33.964Z,71.94
2022-12-29T18:04:16.146Z,71.99
2022-12-29T18:06:49.208Z,72.06
2022-12-29T18:09:25.126Z,71.91
2022-12-29T18:11:57.512Z,72.13
2022-12-29T18:14:34.158Z,72.04
2022-12-29T18:17:13.901Z,72.07
2022-12-29T18:19:46.645Z,72.35
2022-12-29T18:22:32.839Z,72.43
2022-12-29T18:25:26.840Z,72.53
2022-12-29T18:27:59.680Z,72.53
2022-12-29T18:30:32.486Z,72.95
2022-12-29T18:33:05.202Z,72.83
2022-12-29T18:35:43.383Z,72.90
2022-12-29T18:38:24.143Z,73.00
2022-12-29T18:40:57.167Z,73.16
2022-12-29T18:43:36.198Z,73.37
2022-12-29T18:46:08.845Z,73.06
2022-12-29T18:48:41.393Z,73.20
2022-12-29T18:51:22.218Z,73.41
2022-12-29T18:53:55.053Z,73.34
2022-12-29T18:56:28.194Z,73.46
2022-12-29T18:59:03.731Z,73.48
2022-12-29T19:01:36.596Z,73.72
2022-12-29T19:04:14.345Z,73.92
2022-12-29T19:06:46.933Z,74.08
2022-12-29T19:09:29.086Z,74.13
2022-12-29T19:12:11.701Z,74.46
2022-12-29T19:14:52.264Z,74.81
2022-12-29T19:17:25.336Z,75.20
2022-12-29T19:19:58.333Z,75.00
2022-12-29T19:22:39.003Z,75.15
2022-12-29T19:25:14.827Z,75.17
2022-12-29T19:27:48.365Z,75.33
2022-12-29T19:30:29.394Z,75.61
2022-12-29T19:33:12.826Z,75.36
2022-12-29T19:35:52.449Z,75.38
2022-12-29T19:38:34.869Z,75.64
2022-12-29T19:41:12.359Z,76.17
2022-12-29T19:43:53.703Z,75.60
2022-12-29T19:46:36.450Z,75.71
2022-12-29T19:49:27.113Z,75.86
2022-12-29T19:52:00.421Z,76.16
2022-12-29T19:54:34.380Z,76.34
2022-12-29T19:57:07.355Z,76.29
2022-12-29T19:59:41.071Z,76.17
2022-12-29T20:02:25.073Z,76.42
2022-12-29T20:04:59.968Z,76.52
2022-12-29T20:07:40.433Z,76.43
2022-12-29T20:10:16.029Z,76.23
2022-12-29T20:12:51.882Z,76.43
2022-12-29T20:15:30.297Z,76.58
2022-12-29T20:18:13.058Z,77.02
2022-12-29T20:20:47.353Z,76.89
2022-12-29T20:23:20.155Z,77.13
2022-12-29T20:25:59.459Z,77.38
2022-12-29T20:28:32.521Z,77.41
2022-12-29T20:31:07.666Z,77.15
2022-12-29T20:33:40.030Z,77.48
2022-12-29T20:36:15.267Z,77.61
2022-12-29T20:38:49.427Z,77.48
2022-12-29T20:41:22.892Z,77.73
2022-12-29T20:43:55.692Z,77.43
2022-12-29T20:46:35.368Z,77.51
2022-12-29T20:49:13.821Z,77.70
2022-12-29T20:54:40.111Z,78.09
2022-12-29T20:57:12.846Z,77.87
2022-12-29T20:59:45.666Z,78.08
2022-12-29T21:02:26.561Z,78.12
2022-12-29T21:05:23.192Z,78.46
2022-12-29T21:07:51.798Z,78.12
2022-12-29T21:10:25.074Z,78.68
2022-12-29T21:12:57.469Z,78.51
2022-12-29T21:15:30.830Z,78.86
2022-12-29T21:18:03.219Z,78.33
2022-12-29T21:20:36.022Z,78.80
2022-12-29T21:23:08.430Z,78.47
2022-12-29T21:25:46.077Z,78.52
2022-12-29T21:28:18.518Z,78.63
2022-12-29T21:30:51.729Z,78.64
2022-12-29T21:33:24.156Z,78.65
2022-12-29T21:35:56.835Z,78.54
2022-12-29T21:38:29.312Z,78.72
2022-12-29T21:41:08.173Z,78.71
2022-12-29T21:43:41.078Z,78.97
2022-12-29T21:46:14.760Z,78.95
2022-12-29T21:48:48.555Z,78.86
2022-12-29T21:51:38.236Z,79.15
2022-12-29T21:54:29.803Z,78.80
2022-12-29T21:57:02.223Z,78.78
2022-12-29T21:59:52.398Z,78.82
2022-12-29T22:02:44.477Z,78.73
2022-12-29T22:05:35.295Z,78.67
2022-12-29T22:08:25.391Z,78.87
2022-12-29T22:11:15.427Z,78.95
2022-12-29T22:13:51.271Z,78.95
2022-12-29T22:16:25.915Z,78.96
2022-12-29T22:18:58.379Z,78.85
2022-12-29T22:21:31.520Z,79.20
2022-12-29T22:24:04.009Z,78.90
2022-12-29T22:26:38.294Z,78.81
2022-12-29T22:29:10.727Z,79.08
2022-12-29T22:31:44.296Z,78.86
2022-12-29T22:34:16.722Z,78.86
2022-12-29T22:36:49.107Z,78.97
2022-12-29T22:39:22.931Z,79.06
2022-12-29T22:41:55.202Z,79.53
2022-12-29T22:44:27.853Z,79.46
2022-12-29T22:47:00.791Z,79.31
2022-12-29T22:49:33.130Z,79.50
2022-12-29T22:52:06.017Z,79.35
2022-12-29T22:54:38.474Z,79.48
2022-12-29T22:57:10.757Z,79.58
2022-12-29T22:59:43.383Z,79.60
2022-12-29T23:02:16.116Z,79.73
2022-12-29T23:05:05.322Z,79.70
2022-12-29T23:07:38.316Z,79.90
2022-12-29T23:10:11.574Z,79.45
2022-12-29T23:12:44.184Z,79.78
2022-12-29T23:15:16.649Z,79.80
2022-12-29T23:17:49.038Z,80.17
2022-12-29T23:20:21.533Z,80.30
2022-12-29T23:22:53.856Z,80.11
2022-12-29T23:25:26.200Z,80.05
2022-12-29T23:27:58.581Z,80.16
2022-12-29T23:30:30.947Z,80.30
2022-12-29T23:33:03.337Z,80.66
2022-12-29T23:35:35.744Z,80.47
2022-12-29T23:38:08.886Z,80.69
2022-12-29T23:40:41.634Z,80.52
2022-12-29T23:43:14.050Z,80.67
2022-12-29T23:45:50.847Z,80.67
2022-12-29T23:48:23.930Z,80.72
2022-12-29T23:50:58.291Z,80.75
2022-12-29T23:53:30.714Z,80.77
2022-12-29T23:56:07.242Z,80.74
2022-12-29T23:58:39.669Z,81.16
